sensor_id;sensor_type;location;lat;lon;timestamp;pressure;altitude;pressure_sealevel;temperature;humidity
19150;BME280;9707;49.158;8.632;2023-05-23T00:00:36;100218.13;;;25.86;43.12
19150;BME280;9707;49.158;8.632;2023-05-23T00:03:02;100219.97;;;25.85;43.40
19150;BME280;9707;49.158;8.632;2023-05-23T00:05:28;100221.88;;;25.85;43.23
19150;BME280;9707;49.158;8.632;2023-05-23T00:07:53;100227.34;;;25.85;43.47
19150;BME280;9707;49.158;8.632;2023-05-23T00:10:19;100226.63;;;25.83;43.10
19150;BME280;9707;49.158;8.632;2023-05-23T00:12:44;100223.88;;;25.83;43.02
19150;BME280;9707;49.158;8.632;2023-05-23T00:15:12;100227.63;;;25.82;43.03
19150;BME280;9707;49.158;8.632;2023-05-23T00:17:37;100227.63;;;25.82;43.33
19150;BME280;9707;49.158;8.632;2023-05-23T00:20:04;100235.16;;;25.80;43.15
19150;BME280;9707;49.158;8.632;2023-05-23T00:22:29;100242.47;;;25.79;42.88
19150;BME280;9707;49.158;8.632;2023-05-23T00:24:54;100243.31;;;25.80;42.88
19150;BME280;9707;49.158;8.632;2023-05-23T00:27:22;100241.63;;;25.79;43.30
19150;BME280;9707;49.158;8.632;2023-05-23T00:29:47;100238.91;;;25.79;43.00
19150;BME280;9707;49.158;8.632;2023-05-23T00:32:12;100243.47;;;25.78;43.09
19150;BME280;9707;49.158;8.632;2023-05-23T00:34:37;100240.91;;;25.77;43.20
19150;BME280;9707;49.158;8.632;2023-05-23T00:37:03;100238.19;;;25.77;43.15
19150;BME280;9707;49.158;8.632;2023-05-23T00:39:29;100235.44;;;25.77;42.99
19150;BME280;9707;49.158;8.632;2023-05-23T00:41:54;100240.22;;;25.75;42.95
19150;BME280;9707;49.158;8.632;2023-05-23T00:44:20;100242.94;;;25.75;43.06
19150;BME280;9707;49.158;8.632;2023-05-23T00:46:49;100249.44;;;25.74;43.16
19150;BME280;9707;49.158;8.632;2023-05-23T00:49:15;100245.84;;;25.73;43.10
19150;BME280;9707;49.158;8.632;2023-05-23T00:51:44;100247.69;;;25.73;43.29
19150;BME280;9707;49.158;8.632;2023-05-23T00:54:09;100244.13;;;25.72;43.06
19150;BME280;9707;49.158;8.632;2023-05-23T00:56:35;100239.84;;;25.70;42.93
19150;BME280;9707;49.158;8.632;2023-05-23T00:59:00;100247.88;;;25.71;43.22
19150;BME280;9707;49.158;8.632;2023-05-23T01:01:26;100247.00;;;25.71;43.12
19150;BME280;9707;49.158;8.632;2023-05-23T01:03:51;100248.03;;;25.70;43.20
19150;BME280;9707;49.158;8.632;2023-05-23T01:06:17;100246.31;;;25.69;43.15
19150;BME280;9707;49.158;8.632;2023-05-23T01:08:42;100247.31;;;25.68;43.19
19150;BME280;9707;49.158;8.632;2023-05-23T01:11:17;100247.31;;;25.68;42.94
19150;BME280;9707;49.158;8.632;2023-05-23T01:13:52;100245.59;;;25.67;43.25
19150;BME280;9707;49.158;8.632;2023-05-23T01:16:29;100245.59;;;25.67;42.73
19150;BME280;9707;49.158;8.632;2023-05-23T01:21:52;100251.38;;;25.64;43.33
19150;BME280;9707;49.158;8.632;2023-05-23T01:24:31;100249.66;;;25.63;43.28
19150;BME280;9707;49.158;8.632;2023-05-23T01:27:08;100243.34;;;25.62;43.24
19150;BME280;9707;49.158;8.632;2023-05-23T01:29:44;100245.22;;;25.62;42.95
19150;BME280;9707;49.158;8.632;2023-05-23T01:32:11;100247.09;;;25.61;43.10
19150;BME280;9707;49.158;8.632;2023-05-23T01:34:39;100258.03;;;25.61;42.97
19150;BME280;9707;49.158;8.632;2023-05-23T01:37:08;100257.16;;;25.61;43.05
19150;BME280;9707;49.158;8.632;2023-05-23T01:39:34;100263.47;;;25.61;43.06
19150;BME280;9707;49.158;8.632;2023-05-23T01:42:00;100259.19;;;25.59;43.36
19150;BME280;9707;49.158;8.632;2023-05-23T01:44:25;100264.66;;;25.59;43.44
19150;BME280;9707;49.158;8.632;2023-05-23T01:46:50;100257.47;;;25.58;43.33
19150;BME280;9707;49.158;8.632;2023-05-23T01:49:17;100264.66;;;25.59;43.34
19150;BME280;9707;49.158;8.632;2023-05-23T01:51:44;100266.66;;;25.57;43.32
19150;BME280;9707;49.158;8.632;2023-05-23T01:54:10;100277.56;;;25.57;43.12
19150;BME280;9707;49.158;8.632;2023-05-23T01:56:36;100277.56;;;25.57;43.31
19150;BME280;9707;49.158;8.632;2023-05-23T01:59:02;100276.72;;;25.56;43.49
19150;BME280;9707;49.158;8.632;2023-05-23T02:01:28;100285.06;;;25.55;43.75
19150;BME280;9707;49.158;8.632;2023-05-23T02:03:54;100273.47;;;25.53;43.50
19150;BME280;9707;49.158;8.632;2023-05-23T02:06:19;100274.44;;;25.52;43.33
19150;BME280;9707;49.158;8.632;2023-05-23T02:08:45;100273.63;;;25.51;43.72
19150;BME280;9707;49.158;8.632;2023-05-23T02:11:10;100274.63;;;25.50;43.54
19150;BME280;9707;49.158;8.632;2023-05-23T02:13:35;100277.38;;;25.50;43.55
19150;BME280;9707;49.158;8.632;2023-05-23T02:16:00;100277.50;;;25.49;43.49
19150;BME280;9707;49.158;8.632;2023-05-23T02:18:26;100281.25;;;25.48;43.67
19150;BME280;9707;49.158;8.632;2023-05-23T02:20:54;100279.53;;;25.47;43.92
19150;BME280;9707;49.158;8.632;2023-05-23T02:23:20;100275.09;;;25.46;43.61
19150;BME280;9707;49.158;8.632;2023-05-23T02:25:45;100269.78;;;25.44;43.74
19150;BME280;9707;49.158;8.632;2023-05-23T02:28:11;100272.50;;;25.44;43.81
19150;BME280;9707;49.158;8.632;2023-05-23T02:30:37;100278.97;;;25.43;44.05
19150;BME280;9707;49.158;8.632;2023-05-23T02:33:06;100272.69;;;25.43;43.68
19150;BME280;9707;49.158;8.632;2023-05-23T02:35:32;100267.38;;;25.41;43.80
19150;BME280;9707;49.158;8.632;2023-05-23T02:37:58;100279.13;;;25.42;43.64
19150;BME280;9707;49.158;8.632;2023-05-23T02:40:23;100280.16;;;25.41;43.89
19150;BME280;9707;49.158;8.632;2023-05-23T02:42:48;100287.50;;;25.40;43.85
19150;BME280;9707;49.158;8.632;2023-05-23T02:45:16;100287.50;;;25.40;43.67
19150;BME280;9707;49.158;8.632;2023-05-23T02:47:41;100292.94;;;25.40;43.79
19150;BME280;9707;49.158;8.632;2023-05-23T02:50:07;100291.06;;;25.41;43.46
19150;BME280;9707;49.158;8.632;2023-05-23T02:52:32;100293.94;;;25.39;43.54
19150;BME280;9707;49.158;8.632;2023-05-23T02:54:57;100292.06;;;25.40;43.31
19150;BME280;9707;49.158;8.632;2023-05-23T02:57:22;100286.63;;;25.40;43.31
19150;BME280;9707;49.158;8.632;2023-05-23T02:59:48;100292.06;;;25.40;43.63
19150;BME280;9707;49.158;8.632;2023-05-23T03:02:13;100297.53;;;25.40;43.62
19150;BME280;9707;49.158;8.632;2023-05-23T03:04:38;100290.38;;;25.39;43.50
19150;BME280;9707;49.158;8.632;2023-05-23T03:07:04;100292.22;;;25.38;43.39
19150;BME280;9707;49.158;8.632;2023-05-23T03:09:30;100292.22;;;25.38;43.27
19150;BME280;9707;49.158;8.632;2023-05-23T03:11:56;100294.94;;;25.38;43.29
19150;BME280;9707;49.158;8.632;2023-05-23T03:14:21;100289.50;;;25.38;43.23
19150;BME280;9707;49.158;8.632;2023-05-23T03:16:46;100294.94;;;25.38;43.38
19150;BME280;9707;49.158;8.632;2023-05-23T03:19:11;100300.56;;;25.37;43.40
19150;BME280;9707;49.158;8.632;2023-05-23T03:21:37;100299.56;;;25.38;43.23
19150;BME280;9707;49.158;8.632;2023-05-23T03:24:02;100297.81;;;25.37;43.60
19150;BME280;9707;49.158;8.632;2023-05-23T03:26:28;100306.00;;;25.37;43.35
19150;BME280;9707;49.158;8.632;2023-05-23T03:28:53;100302.59;;;25.35;43.54
19150;BME280;9707;49.158;8.632;2023-05-23T03:31:18;100302.59;;;25.35;43.09
19150;BME280;9707;49.158;8.632;2023-05-23T03:33:43;100307.19;;;25.34;43.36
19150;BME280;9707;49.158;8.632;2023-05-23T03:36:09;100304.44;;;25.34;43.20
19150;BME280;9707;49.158;8.632;2023-05-23T03:38:34;100303.63;;;25.34;43.38
19150;BME280;9707;49.158;8.632;2023-05-23T03:40:59;100306.34;;;25.34;43.33
19150;BME280;9707;49.158;8.632;2023-05-23T03:43:25;100309.06;;;25.34;43.45
19150;BME280;9707;49.158;8.632;2023-05-23T03:45:50;100305.63;;;25.32;43.26
19150;BME280;9707;49.158;8.632;2023-05-23T03:48:15;100315.53;;;25.33;43.44
19150;BME280;9707;49.158;8.632;2023-05-23T03:50:41;100309.38;;;25.31;43.46
19150;BME280;9707;49.158;8.632;2023-05-23T03:53:06;100314.81;;;25.31;43.58
19150;BME280;9707;49.158;8.632;2023-05-23T03:55:31;100316.53;;;25.32;43.54
19150;BME280;9707;49.158;8.632;2023-05-23T03:57:57;100321.16;;;25.31;43.32
19150;BME280;9707;49.158;8.632;2023-05-23T04:00:22;100321.16;;;25.31;43.34
19150;BME280;9707;49.158;8.632;2023-05-23T04:02:47;100318.56;;;25.30;43.14
19150;BME280;9707;49.158;8.632;2023-05-23T04:05:14;100323.00;;;25.31;43.57
19150;BME280;9707;49.158;8.632;2023-05-23T04:07:39;100328.44;;;25.31;43.28
19150;BME280;9707;49.158;8.632;2023-05-23T04:10:06;100332.03;;;25.31;43.06
19150;BME280;9707;49.158;8.632;2023-05-23T04:12:31;100331.19;;;25.31;43.18
19150;BME280;9707;49.158;8.632;2023-05-23T04:14:57;100329.47;;;25.30;43.24
19150;BME280;9707;49.158;8.632;2023-05-23T04:17:23;100344.81;;;25.31;43.28
19150;BME280;9707;49.158;8.632;2023-05-23T04:19:52;100331.19;;;25.31;43.07
19150;BME280;9707;49.158;8.632;2023-05-23T04:22:18;100338.53;;;25.30;43.27
19150;BME280;9707;49.158;8.632;2023-05-23T04:24:43;100337.66;;;25.30;43.10
19150;BME280;9707;49.158;8.632;2023-05-23T04:27:08;100326.75;;;25.30;43.12
19150;BME280;9707;49.158;8.632;2023-05-23T04:29:34;100342.09;;;25.31;43.08
19150;BME280;9707;49.158;8.632;2023-05-23T04:32:00;100340.38;;;25.30;43.42
19150;BME280;9707;49.158;8.632;2023-05-23T04:34:26;100341.25;;;25.30;42.99
19150;BME280;9707;49.158;8.632;2023-05-23T04:36:51;100344.97;;;25.29;42.80
19150;BME280;9707;49.158;8.632;2023-05-23T04:39:18;100349.56;;;25.29;42.87
19150;BME280;9707;49.158;8.632;2023-05-23T04:41:43;100350.41;;;25.29;42.88
19150;BME280;9707;49.158;8.632;2023-05-23T04:44:09;100354.00;;;25.30;43.03
19150;BME280;9707;49.158;8.632;2023-05-23T04:46:37;100361.31;;;25.29;42.71
19150;BME280;9707;49.158;8.632;2023-05-23T04:49:06;100355.03;;;25.29;42.90
19150;BME280;9707;49.158;8.632;2023-05-23T04:51:32;100360.47;;;25.29;42.87
19150;BME280;9707;49.158;8.632;2023-05-23T04:53:58;100357.75;;;25.29;42.72
19150;BME280;9707;49.158;8.632;2023-05-23T04:56:23;100360.47;;;25.29;42.79
19150;BME280;9707;49.158;8.632;2023-05-23T04:58:51;100359.59;;;25.28;42.56
19150;BME280;9707;49.158;8.632;2023-05-23T05:01:16;100365.06;;;25.28;42.60
19150;BME280;9707;49.158;8.632;2023-05-23T05:03:41;100370.50;;;25.28;42.21
19150;BME280;9707;49.158;8.632;2023-05-23T05:06:07;100369.69;;;25.28;42.15
19150;BME280;9707;49.158;8.632;2023-05-23T05:08:32;100364.22;;;25.28;42.00
19150;BME280;9707;49.158;8.632;2023-05-23T05:10:57;100368.81;;;25.27;42.51
19150;BME280;9707;49.158;8.632;2023-05-23T05:13:23;100367.94;;;25.27;41.96
19150;BME280;9707;49.158;8.632;2023-05-23T05:15:48;100368.81;;;25.27;42.16
19150;BME280;9707;49.158;8.632;2023-05-23T05:18:13;100372.41;;;25.28;42.27
19150;BME280;9707;49.158;8.632;2023-05-23T05:20:38;100380.59;;;25.28;42.33
19150;BME280;9707;49.158;8.632;2023-05-23T05:23:04;100385.16;;;25.27;42.09
19150;BME280;9707;49.158;8.632;2023-05-23T05:25:29;100378.84;;;25.27;41.76
19150;BME280;9707;49.158;8.632;2023-05-23T05:28:00;100389.75;;;25.27;41.77
19150;BME280;9707;49.158;8.632;2023-05-23T05:30:30;100386.19;;;25.26;41.67
19150;BME280;9707;49.158;8.632;2023-05-23T05:32:57;100395.38;;;25.25;41.98
19150;BME280;9707;49.158;8.632;2023-05-23T05:35:25;100398.22;;;25.24;41.54
19150;BME280;9707;49.158;8.632;2023-05-23T05:37:51;100393.78;;;25.23;41.39
19150;BME280;9707;49.158;8.632;2023-05-23T05:40:16;100396.50;;;25.23;40.97
19150;BME280;9707;49.158;8.632;2023-05-23T05:42:41;100398.66;;;25.19;41.07
19150;BME280;9707;49.158;8.632;2023-05-23T05:45:07;100402.41;;;25.18;41.14
19150;BME280;9707;49.158;8.632;2023-05-23T05:47:32;100407.00;;;25.18;41.38
19150;BME280;9707;49.158;8.632;2023-05-23T05:49:57;100410.72;;;25.17;40.78
19150;BME280;9707;49.158;8.632;2023-05-23T05:52:22;100410.16;;;25.13;41.25
19150;BME280;9707;49.158;8.632;2023-05-23T05:54:48;100411.03;;;25.14;40.83
19150;BME280;9707;49.158;8.632;2023-05-23T05:57:13;100415.75;;;25.12;40.89
19150;BME280;9707;49.158;8.632;2023-05-23T05:59:38;100416.78;;;25.11;40.54
19150;BME280;9707;49.158;8.632;2023-05-23T06:02:03;100424.97;;;25.11;40.50
19150;BME280;9707;49.158;8.632;2023-05-23T06:04:29;100427.69;;;25.11;40.57
19150;BME280;9707;49.158;8.632;2023-05-23T06:06:54;100421.69;;;25.07;40.38
19150;BME280;9707;49.158;8.632;2023-05-23T06:09:20;100436.47;;;25.05;40.60
19150;BME280;9707;49.158;8.632;2023-05-23T06:11:45;100434.75;;;25.04;40.73
19150;BME280;9707;49.158;8.632;2023-05-23T06:14:10;100435.44;;;25.06;40.55
19150;BME280;9707;49.158;8.632;2023-05-23T06:16:36;100440.91;;;25.06;40.40
19150;BME280;9707;49.158;8.632;2023-05-23T06:19:01;100444.50;;;25.06;40.18
19150;BME280;9707;49.158;8.632;2023-05-23T06:21:26;100440.06;;;25.05;40.35
19150;BME280;9707;49.158;8.632;2023-05-23T06:23:52;100447.22;;;25.06;40.35
19150;BME280;9707;49.158;8.632;2023-05-23T06:26:17;100451.81;;;25.06;39.89
19150;BME280;9707;49.158;8.632;2023-05-23T06:28:42;100456.41;;;25.05;39.85
19150;BME280;9707;49.158;8.632;2023-05-23T06:31:07;100462.72;;;25.06;39.94
19150;BME280;9707;49.158;8.632;2023-05-23T06:33:36;100458.28;;;25.05;39.49
19150;BME280;9707;49.158;8.632;2023-05-23T06:36:01;100468.16;;;25.06;39.50
19150;BME280;9707;49.158;8.632;2023-05-23T06:38:28;100472.91;;;25.04;39.26
19150;BME280;9707;49.158;8.632;2023-05-23T06:40:55;100464.88;;;25.02;39.36
19150;BME280;9707;49.158;8.632;2023-05-23T06:43:20;100465.03;;;25.01;39.24
19150;BME280;9707;49.158;8.632;2023-05-23T06:45:45;100470.47;;;25.01;39.64
19150;BME280;9707;49.158;8.632;2023-05-23T06:48:14;100468.75;;;25.00;39.45
19150;BME280;9707;49.158;8.632;2023-05-23T06:50:39;100479.38;;;25.03;39.68
19150;BME280;9707;49.158;8.632;2023-05-23T06:53:05;100474.91;;;25.02;39.24
19150;BME280;9707;49.158;8.632;2023-05-23T06:55:30;100479.38;;;25.03;39.05
19150;BME280;9707;49.158;8.632;2023-05-23T06:57:58;100481.09;;;25.04;39.21
19150;BME280;9707;49.158;8.632;2023-05-23T07:00:23;100479.38;;;25.03;39.18
19150;BME280;9707;49.158;8.632;2023-05-23T07:02:48;100491.44;;;25.00;38.91
19150;BME280;9707;49.158;8.632;2023-05-23T07:05:13;100486.13;;;24.99;39.24
19150;BME280;9707;49.158;8.632;2023-05-23T07:07:40;100487.16;;;24.98;39.20
19150;BME280;9707;49.158;8.632;2023-05-23T07:10:06;100489.69;;;24.99;38.82
19150;BME280;9707;49.158;8.632;2023-05-23T07:12:31;100491.59;;;24.99;39.18
19150;BME280;9707;49.158;8.632;2023-05-23T07:14:56;100498.75;;;25.00;39.34
19150;BME280;9707;49.158;8.632;2023-05-23T07:17:21;100505.91;;;25.01;39.22
19150;BME280;9707;49.158;8.632;2023-05-23T07:19:47;100506.63;;;25.03;39.18
19150;BME280;9707;49.158;8.632;2023-05-23T07:22:12;100512.09;;;25.03;39.15
19150;BME280;9707;49.158;8.632;2023-05-23T07:24:37;100513.81;;;25.04;38.88
19150;BME280;9707;49.158;8.632;2023-05-23T07:27:02;100516.38;;;25.05;38.69
19150;BME280;9707;49.158;8.632;2023-05-23T07:29:28;100516.38;;;25.05;38.70
19150;BME280;9707;49.158;8.632;2023-05-23T07:31:53;100515.22;;;25.08;38.58
19150;BME280;9707;49.158;8.632;2023-05-23T07:34:18;100513.50;;;25.07;38.41
19150;BME280;9707;49.158;8.632;2023-05-23T07:36:44;100516.06;;;25.08;37.95
19150;BME280;9707;49.158;8.632;2023-05-23T07:39:09;100521.53;;;25.08;38.01
19150;BME280;9707;49.158;8.632;2023-05-23T07:41:35;100520.50;;;25.09;38.16
19150;BME280;9707;49.158;8.632;2023-05-23T07:44:00;100522.25;;;25.10;38.24
19150;BME280;9707;49.158;8.632;2023-05-23T07:46:25;100517.66;;;25.11;37.71
19150;BME280;9707;49.158;8.632;2023-05-23T07:48:51;100523.22;;;25.09;37.15
19150;BME280;9707;49.158;8.632;2023-05-23T07:51:16;100536.03;;;25.09;37.46
19150;BME280;9707;49.158;8.632;2023-05-23T07:53:43;100524.25;;;25.08;37.62
19150;BME280;9707;49.158;8.632;2023-05-23T07:56:08;100527.84;;;25.09;37.65
19150;BME280;9707;49.158;8.632;2023-05-23T07:58:33;100516.94;;;25.09;38.06
19150;BME280;9707;49.158;8.632;2023-05-23T08:00:59;100523.97;;;25.11;37.84
19150;BME280;9707;49.158;8.632;2023-05-23T08:03:24;100525.69;;;25.12;38.02
19150;BME280;9707;49.158;8.632;2023-05-23T08:05:49;100529.97;;;25.15;38.15
19150;BME280;9707;49.158;8.632;2023-05-23T08:08:15;100527.25;;;25.15;38.38
19150;BME280;9707;49.158;8.632;2023-05-23T08:10:40;100534.41;;;25.16;38.22
19150;BME280;9707;49.158;8.632;2023-05-23T08:13:08;100525.41;;;25.15;37.89
19150;BME280;9707;49.158;8.632;2023-05-23T08:15:33;100532.56;;;25.16;38.24
19150;BME280;9707;49.158;8.632;2023-05-23T08:17:59;100535.16;;;25.18;37.90
19150;BME280;9707;49.158;8.632;2023-05-23T08:20:25;100528.69;;;25.19;37.84
19150;BME280;9707;49.158;8.632;2023-05-23T08:22:57;100528.69;;;25.19;37.86
19150;BME280;9707;49.158;8.632;2023-05-23T08:25:22;100535.84;;;25.20;37.86
19150;BME280;9707;49.158;8.632;2023-05-23T08:27:48;100536.84;;;25.19;38.06
19150;BME280;9707;49.158;8.632;2023-05-23T08:30:14;100538.72;;;25.18;37.78
19150;BME280;9707;49.158;8.632;2023-05-23T08:32:39;100534.13;;;25.19;38.11
19150;BME280;9707;49.158;8.632;2023-05-23T08:35:05;100539.59;;;25.19;37.61
19150;BME280;9707;49.158;8.632;2023-05-23T08:37:30;100538.56;;;25.20;37.66
19150;BME280;9707;49.158;8.632;2023-05-23T08:39:55;100551.19;;;25.21;37.67
19150;BME280;9707;49.158;8.632;2023-05-23T08:42:21;100545.03;;;25.19;37.14
19150;BME280;9707;49.158;8.632;2023-05-23T08:44:46;100542.16;;;25.20;37.29
19150;BME280;9707;49.158;8.632;2023-05-23T08:47:12;100542.16;;;25.20;37.10
19150;BME280;9707;49.158;8.632;2023-05-23T08:49:41;100539.28;;;25.22;37.05
19150;BME280;9707;49.158;8.632;2023-05-23T08:52:09;100547.31;;;25.23;36.75
19150;BME280;9707;49.158;8.632;2023-05-23T08:54:36;100542.72;;;25.24;37.20
19150;BME280;9707;49.158;8.632;2023-05-23T08:57:01;100540.72;;;25.26;37.23
19150;BME280;9707;49.158;8.632;2023-05-23T08:59:27;100543.16;;;25.29;37.48
19150;BME280;9707;49.158;8.632;2023-05-23T09:01:54;100542.84;;;25.32;37.44
19150;BME280;9707;49.158;8.632;2023-05-23T09:04:21;100552.91;;;25.31;37.29
19150;BME280;9707;49.158;8.632;2023-05-23T09:06:46;100545.59;;;25.32;37.28
19150;BME280;9707;49.158;8.632;2023-05-23T09:09:11;100547.59;;;25.30;37.29
19150;BME280;9707;49.158;8.632;2023-05-23T09:11:37;100552.06;;;25.31;37.03
19150;BME280;9707;49.158;8.632;2023-05-23T09:14:02;100551.91;;;25.32;37.28
19150;BME280;9707;49.158;8.632;2023-05-23T09:16:32;100549.03;;;25.34;36.88
19150;BME280;9707;49.158;8.632;2023-05-23T09:18:58;100557.22;;;25.34;36.71
19150;BME280;9707;49.158;8.632;2023-05-23T09:21:33;100565.41;;;25.34;36.47
19150;BME280;9707;49.158;8.632;2023-05-23T09:23:59;100560.97;;;25.33;36.12
19150;BME280;9707;49.158;8.632;2023-05-23T09:26:24;100561.66;;;25.35;36.22
19150;BME280;9707;49.158;8.632;2023-05-23T09:28:50;100561.38;;;25.38;36.09
19150;BME280;9707;49.158;8.632;2023-05-23T09:31:15;100553.88;;;25.40;35.93
19150;BME280;9707;49.158;8.632;2023-05-23T09:33:52;100559.06;;;25.43;35.90
19150;BME280;9707;49.158;8.632;2023-05-23T09:36:18;100562.47;;;25.45;35.95
19150;BME280;9707;49.158;8.632;2023-05-23T09:38:45;100564.06;;;25.47;35.32
19150;BME280;9707;49.158;8.632;2023-05-23T09:41:11;100563.03;;;25.48;36.08
19150;BME280;9707;49.158;8.632;2023-05-23T09:43:48;100561.03;;;25.50;35.72
19150;BME280;9707;49.158;8.632;2023-05-23T09:46:14;100565.34;;;25.53;35.67
19150;BME280;9707;49.158;8.632;2023-05-23T09:48:39;100562.44;;;25.54;35.73
19150;BME280;9707;49.158;8.632;2023-05-23T09:51:10;100564.00;;;25.57;35.79
19150;BME280;9707;49.158;8.632;2023-05-23T09:53:35;100568.47;;;25.58;35.43
19150;BME280;9707;49.158;8.632;2023-05-23T09:56:02;100571.91;;;25.60;35.17
19150;BME280;9707;49.158;8.632;2023-05-23T09:58:28;100559.28;;;25.59;35.25
19150;BME280;9707;49.158;8.632;2023-05-23T10:00:55;100563.72;;;25.60;35.44
19150;BME280;9707;49.158;8.632;2023-05-23T10:03:30;100560.66;;;25.63;35.11
19150;BME280;9707;49.158;8.632;2023-05-23T10:05:59;100566.84;;;25.65;35.20
19150;BME280;9707;49.158;8.632;2023-05-23T10:08:42;100559.50;;;25.65;35.33
19150;BME280;9707;49.158;8.632;2023-05-23T10:13:42;100555.31;;;25.71;34.94
19150;BME280;9707;49.158;8.632;2023-05-23T10:16:12;100555.03;;;25.74;35.17
19150;BME280;9707;49.158;8.632;2023-05-23T10:18:42;100558.47;;;25.76;35.25
19150;BME280;9707;49.158;8.632;2023-05-23T10:21:15;100562.59;;;25.80;35.19
19150;BME280;9707;49.158;8.632;2023-05-23T10:23:42;100566.91;;;25.82;35.37
19150;BME280;9707;49.158;8.632;2023-05-23T10:26:08;100561.13;;;25.85;35.08
19150;BME280;9707;49.158;8.632;2023-05-23T10:28:34;100560.97;;;25.87;34.77
19150;BME280;9707;49.158;8.632;2023-05-23T10:30:59;100562.41;;;25.91;34.58
19150;BME280;9707;49.158;8.632;2023-05-23T10:33:26;100560.56;;;25.91;34.77
19150;BME280;9707;49.158;8.632;2023-05-23T10:36:08;100564.00;;;25.93;35.27
19150;BME280;9707;49.158;8.632;2023-05-23T10:39:07;100552.06;;;25.94;35.17
19150;BME280;9707;49.158;8.632;2023-05-23T10:41:55;100563.84;;;25.95;35.64
19150;BME280;9707;49.158;8.632;2023-05-23T10:44:28;100557.38;;;25.96;35.19
19150;BME280;9707;49.158;8.632;2023-05-23T10:46:58;100566.25;;;25.98;34.98
19150;BME280;9707;49.158;8.632;2023-05-23T10:49:43;100553.34;;;26.00;34.90
19150;BME280;9707;49.158;8.632;2023-05-23T10:52:10;100559.34;;;26.03;35.69
19150;BME280;9707;49.158;8.632;2023-05-23T10:54:43;100562.63;;;26.07;35.80
19150;BME280;9707;49.158;8.632;2023-05-23T10:57:10;100559.59;;;26.10;35.50
19150;BME280;9707;49.158;8.632;2023-05-23T10:59:39;100552.97;;;26.12;35.68
19150;BME280;9707;49.158;8.632;2023-05-23T11:02:12;100561.84;;;26.14;35.90
19150;BME280;9707;49.158;8.632;2023-05-23T11:04:38;100560.69;;;26.17;35.66
19150;BME280;9707;49.158;8.632;2023-05-23T11:07:03;100549.47;;;26.20;35.53
19150;BME280;9707;49.158;8.632;2023-05-23T11:09:28;100562.97;;;26.21;34.96
19150;BME280;9707;49.158;8.632;2023-05-23T11:12:00;100560.06;;;26.23;35.38
19150;BME280;9707;49.158;8.632;2023-05-23T11:14:50;100561.81;;;26.24;35.33
19150;BME280;9707;49.158;8.632;2023-05-23T11:17:29;100549.72;;;26.26;35.28
19150;BME280;9707;49.158;8.632;2023-05-23T11:20:02;100557.56;;;26.29;35.25
19150;BME280;9707;49.158;8.632;2023-05-23T11:22:32;100554.84;;;26.29;34.75
19150;BME280;9707;49.158;8.632;2023-05-23T11:24:58;100555.72;;;26.30;34.09
19150;BME280;9707;49.158;8.632;2023-05-23T11:27:32;100553.28;;;26.27;34.76
19150;BME280;9707;49.158;8.632;2023-05-23T11:30:12;100563.19;;;26.28;35.31
19150;BME280;9707;49.158;8.632;2023-05-23T11:32:38;100563.19;;;26.28;35.01
19150;BME280;9707;49.158;8.632;2023-05-23T11:35:08;100563.19;;;26.28;35.06
19150;BME280;9707;49.158;8.632;2023-05-23T11:37:34;100569.50;;;26.28;35.33
19150;BME280;9707;49.158;8.632;2023-05-23T11:40:26;100565.22;;;26.26;35.51
19150;BME280;9707;49.158;8.632;2023-05-23T11:42:53;100560.94;;;26.23;35.35
19150;BME280;9707;49.158;8.632;2023-05-23T11:45:19;100564.53;;;26.24;35.66
19150;BME280;9707;49.158;8.632;2023-05-23T11:47:44;100556.34;;;26.24;35.17
19150;BME280;9707;49.158;8.632;2023-05-23T11:50:10;100564.53;;;26.24;34.70
19150;BME280;9707;49.158;8.632;2023-05-23T11:52:35;100560.78;;;26.25;34.85
19150;BME280;9707;49.158;8.632;2023-05-23T11:55:00;100555.31;;;26.25;35.01
19150;BME280;9707;49.158;8.632;2023-05-23T11:57:26;100546.78;;;26.28;35.09
19150;BME280;9707;49.158;8.632;2023-05-23T11:59:52;100562.00;;;26.30;35.38
19150;BME280;9707;49.158;8.632;2023-05-23T12:02:20;100560.84;;;26.33;35.51
19150;BME280;9707;49.158;8.632;2023-05-23T12:04:45;100557.09;;;26.34;35.41
19150;BME280;9707;49.158;8.632;2023-05-23T12:07:10;100559.69;;;26.35;34.45
19150;BME280;9707;49.158;8.632;2023-05-23T12:09:42;100560.41;;;26.37;34.98
19150;BME280;9707;49.158;8.632;2023-05-23T12:12:08;100558.50;;;26.38;35.02
19150;BME280;9707;49.158;8.632;2023-05-23T12:14:33;100557.66;;;26.37;35.51
19150;BME280;9707;49.158;8.632;2023-05-23T12:16:59;100561.97;;;26.40;35.29
19150;BME280;9707;49.158;8.632;2023-05-23T12:19:24;100557.34;;;26.40;34.68
19150;BME280;9707;49.158;8.632;2023-05-23T12:21:49;100559.22;;;26.40;34.67
19150;BME280;9707;49.158;8.632;2023-05-23T12:24:19;100563.53;;;26.42;34.58
19150;BME280;9707;49.158;8.632;2023-05-23T12:26:50;100560.78;;;26.42;34.74
19150;BME280;9707;49.158;8.632;2023-05-23T12:29:18;100553.28;;;26.44;34.59
19150;BME280;9707;49.158;8.632;2023-05-23T12:31:43;100546.81;;;26.45;35.01
19150;BME280;9707;49.158;8.632;2023-05-23T12:34:10;100556.72;;;26.46;35.20
19150;BME280;9707;49.158;8.632;2023-05-23T12:36:36;100557.56;;;26.47;34.98
19150;BME280;9707;49.158;8.632;2023-05-23T12:39:04;100554.84;;;26.47;35.09
19150;BME280;9707;49.158;8.632;2023-05-23T12:41:33;100553.00;;;26.47;34.90
19150;BME280;9707;49.158;8.632;2023-05-23T12:43:59;100559.28;;;26.48;35.06
19150;BME280;9707;49.158;8.632;2023-05-23T12:46:25;100553.81;;;26.48;34.78
19150;BME280;9707;49.158;8.632;2023-05-23T12:48:51;100552.81;;;26.49;34.73
19150;BME280;9707;49.158;8.632;2023-05-23T12:51:17;100553.69;;;26.49;34.22
19150;BME280;9707;49.158;8.632;2023-05-23T12:53:43;100550.94;;;26.49;34.30
19150;BME280;9707;49.158;8.632;2023-05-23T12:56:09;100549.09;;;26.50;34.63
19150;BME280;9707;49.158;8.632;2023-05-23T12:58:34;100538.16;;;26.50;34.70
19150;BME280;9707;49.158;8.632;2023-05-23T13:01:00;100538.84;;;26.52;34.57
19150;BME280;9707;49.158;8.632;2023-05-23T13:03:25;100527.91;;;26.52;34.55